Time;durP1;ratioP1;P1;durP2;ratioP2;P2;SDS_P1;SDS_P2;PMS_P1;PMS_P2;Temp;Humidity;BMP_temperature;BMP_pressure;BME280_temperature;BME280_humidity;BME280_pressure;Samples;Min_cycle;Max_cycle;Signal;HPM_P1;HPM_P2
2022/03/24 00:01:30;;;;;;;;;;;23.50;33.80;;;;;;1530933;77;729;-68
2022/03/24 00:03:32;;;;;;;;;;;23.40;33.70;;;;;;1523705;75;711;-67
2022/03/24 00:05:34;;;;;;;;;;;23.50;33.90;;;;;;1530814;77;1206;-68
2022/03/24 00:07:36;;;;;;;;;;;23.50;33.90;;;;;;1533219;77;834;-68
2022/03/24 00:09:37;;;;;;;;;;;23.40;33.80;;;;;;1531094;77;729;-68
2022/03/24 00:11:40;;;;;;;;;;;23.50;34.00;;;;;;1530004;75;784;-70
2022/03/24 00:13:42;;;;;;;;;;;23.40;33.90;;;;;;1521637;77;1929;-68
2022/03/24 00:15:44;;;;;;;;;;;23.40;33.90;;;;;;1530838;77;1148;-70
2022/03/24 00:17:46;;;;;;;;;;;23.50;34.00;;;;;;1533495;77;710;-69
2022/03/24 00:19:48;;;;;;;;;;;23.50;34.00;;;;;;1530954;77;747;-69
2022/03/24 00:21:50;;;;;;;;;;;23.50;34.00;;;;;;1540761;75;623;-68
2022/03/24 00:23:52;;;;;;;;;;;23.50;34.10;;;;;;1528129;77;717;-68
2022/03/24 00:25:54;;;;;;;;;;;23.50;34.00;;;;;;1532737;75;1171;-68
2022/03/24 00:27:56;;;;;;;;;;;23.50;34.10;;;;;;1530866;77;722;-68
2022/03/24 00:29:58;;;;;;;;;;;23.50;34.20;;;;;;1530943;77;796;-68
2022/03/24 00:32:00;;;;;;;;;;;23.40;34.10;;;;;;1522872;77;734;-69
2022/03/24 00:34:01;;;;;;;;;;;23.40;34.20;;;;;;1534729;75;1933;-68
2022/03/24 00:36:03;;;;;;;;;;;23.50;34.30;;;;;;1527122;77;1135;-69
2022/03/24 00:38:05;;;;;;;;;;;23.50;34.30;;;;;;1530892;77;633;-68
2022/03/24 00:40:07;;;;;;;;;;;23.40;34.20;;;;;;1531017;77;709;-70
2022/03/24 00:42:14;;;;;;;;;;;23.50;34.40;;;;;;1525434;75;648;-69
2022/03/24 00:44:13;;;;;;;;;;;23.60;34.40;;;;;;1529965;77;1237;-69
2022/03/24 00:46:15;;;;;;;;;;;23.60;34.40;;;;;;1525901;77;1151;-68
2022/03/24 00:48:17;;;;;;;;;;;23.50;34.40;;;;;;1531030;77;710;-69
2022/03/24 00:50:20;;;;;;;;;;;23.60;34.30;;;;;;1531675;75;653;-69
2022/03/24 00:52:22;;;;;;;;;;;23.60;34.30;;;;;;1538128;77;688;-69
2022/03/24 00:54:24;;;;;;;;;;;23.60;34.30;;;;;;1530114;75;1938;-69
2022/03/24 00:56:26;;;;;;;;;;;23.60;34.30;;;;;;1524419;77;1143;-69
2022/03/24 00:58:28;;;;;;;;;;;23.70;34.40;;;;;;1530991;77;643;-69
2022/03/24 01:00:30;;;;;;;;;;;23.70;34.50;;;;;;1533201;77;745;-68
2022/03/24 01:02:32;;;;;;;;;;;23.70;34.40;;;;;;1531654;75;729;-69
2022/03/24 01:04:34;;;;;;;;;;;23.60;34.30;;;;;;1518976;77;604;-69
2022/03/24 01:06:36;;;;;;;;;;;23.60;34.40;;;;;;1530908;77;1170;-69
2022/03/24 01:08:38;;;;;;;;;;;23.60;34.30;;;;;;1531730;77;649;-70
2022/03/24 01:10:40;;;;;;;;;;;23.70;34.50;;;;;;1535902;75;719;-69
2022/03/24 01:12:42;;;;;;;;;;;23.70;34.50;;;;;;1531026;77;715;-69
2022/03/24 01:14:44;;;;;;;;;;;23.60;34.40;;;;;;1519789;77;1912;-68
2022/03/24 01:16:46;;;;;;;;;;;23.60;34.30;;;;;;1530865;77;1166;-68
2022/03/24 01:18:48;;;;;;;;;;;23.60;34.40;;;;;;1539507;75;721;-68
2022/03/24 01:20:50;;;;;;;;;;;23.60;34.40;;;;;;1531098;77;615;-68
2022/03/24 01:22:51;;;;;;;;;;;23.60;34.40;;;;;;1530998;77;709;-69
2022/03/24 01:24:53;;;;;;;;;;;23.60;34.40;;;;;;1532337;75;725;-68
2022/03/24 01:26:55;;;;;;;;;;;23.60;34.40;;;;;;1530478;77;1158;-68
2022/03/24 01:28:58;;;;;;;;;;;23.50;34.50;;;;;;1530230;77;744;-68
2022/03/24 01:31:00;;;;;;;;;;;23.60;34.50;;;;;;1530999;75;722;-69
2022/03/24 01:33:02;;;;;;;;;;;23.50;34.50;;;;;;1530966;77;607;-69
2022/03/24 01:35:07;;;;;;;;;;;23.50;34.50;;;;;;1533996;75;1922;-68
2022/03/24 01:37:08;;;;;;;;;;;23.50;34.60;;;;;;1530807;76;1559;-69
2022/03/24 01:39:10;;;;;;;;;;;23.60;34.60;;;;;;1528541;77;752;-68
2022/03/24 01:41:12;;;;;;;;;;;23.50;34.60;;;;;;1531100;77;726;-68
2022/03/24 01:43:14;;;;;;;;;;;23.50;34.60;;;;;;1543493;75;724;-69
2022/03/24 01:45:16;;;;;;;;;;;23.60;34.70;;;;;;1530867;75;741;-67
2022/03/24 01:47:18;;;;;;;;;;;23.60;34.60;;;;;;1531007;77;1153;-68
2022/03/24 01:49:20;;;;;;;;;;;23.60;34.70;;;;;;1526554;77;746;-67
2022/03/24 01:51:22;;;;;;;;;;;23.60;34.70;;;;;;1539593;75;722;-67
2022/03/24 01:53:24;;;;;;;;;;;23.60;34.70;;;;;;1530951;77;718;-67
2022/03/24 01:55:26;;;;;;;;;;;23.70;34.80;;;;;;1535580;75;1934;-67
2022/03/24 01:57:28;;;;;;;;;;;23.60;34.60;;;;;;1521362;77;1091;-68
2022/03/24 01:59:29;;;;;;;;;;;23.60;34.70;;;;;;1531063;77;698;-69
2022/03/24 02:01:37;;;;;;;;;;;23.70;34.80;;;;;;1530923;77;722;-68
2022/03/24 02:03:36;;;;;;;;;;;23.70;34.70;;;;;;1529740;77;1082;-68
2022/03/24 02:05:39;;;;;;;;;;;23.70;34.70;;;;;;1538342;75;1153;-68
2022/03/24 02:07:42;;;;;;;;;;;23.70;34.70;;;;;;1530978;77;779;-68
2022/03/24 02:09:44;;;;;;;;;;;23.70;34.70;;;;;;1543752;75;785;-68
2022/03/24 02:11:46;;;;;;;;;;;23.70;34.70;;;;;;1540312;75;690;-67
2022/03/24 02:13:48;;;;;;;;;;;23.70;34.80;;;;;;1535495;77;756;-68
2022/03/24 02:15:50;;;;;;;;;;;23.80;34.90;;;;;;1530825;77;1945;-68
2022/03/24 02:17:52;;;;;;;;;;;23.70;34.80;;;;;;1531911;77;756;-67
2022/03/24 02:19:54;;;;;;;;;;;23.70;34.80;;;;;;1532853;77;901;-68
2022/03/24 02:21:56;;;;;;;;;;;23.70;34.80;;;;;;1523782;75;809;-67
2022/03/24 02:23:59;;;;;;;;;;;23.70;34.80;;;;;;1534106;77;760;-70
2022/03/24 02:26:01;;;;;;;;;;;23.70;34.80;;;;;;1535549;75;1154;-66
2022/03/24 02:28:03;;;;;;;;;;;23.80;34.80;;;;;;1528794;77;675;-67
2022/03/24 02:30:05;;;;;;;;;;;23.80;34.90;;;;;;1527212;77;652;-66
2022/03/24 02:32:08;;;;;;;;;;;23.90;34.90;;;;;;1531195;77;762;-67
2022/03/24 02:36:34;;;;;;;;;;;23.80;35.00;;;;;;1531085;77;1293;-67
2022/03/24 02:38:36;;;;;;;;;;;23.90;35.10;;;;;;1522557;76;1662;-68
2022/03/24 02:40:37;;;;;;;;;;;23.80;34.90;;;;;;1531108;77;815;-69
2022/03/24 02:42:39;;;;;;;;;;;23.80;35.00;;;;;;1528351;75;792;-69
2022/03/24 02:44:42;;;;;;;;;;;23.80;35.00;;;;;;1544157;77;761;-68
2022/03/24 02:46:47;;;;;;;;;;;23.80;35.00;;;;;;1516654;77;1183;-68
2022/03/24 02:48:49;;;;;;;;;;;23.70;35.10;;;;;;1531014;77;807;-67
2022/03/24 02:50:51;;;;;;;;;;;23.80;35.00;;;;;;1538837;75;706;-67
2022/03/24 02:52:53;;;;;;;;;;;23.80;35.00;;;;;;1531031;77;598;-67
2022/03/24 02:54:55;;;;;;;;;;;23.80;35.00;;;;;;1530940;75;1945;-67
2022/03/24 02:56:57;;;;;;;;;;;23.70;35.00;;;;;;1523266;77;1145;-67
2022/03/24 02:58:59;;;;;;;;;;;23.80;35.10;;;;;;1530972;77;742;-67
2022/03/24 03:01:01;;;;;;;;;;;23.70;35.10;;;;;;1528483;77;812;-68
2022/03/24 03:03:02;;;;;;;;;;;23.60;35.10;;;;;;1529987;75;735;-67
2022/03/24 03:05:05;;;;;;;;;;;23.60;35.10;;;;;;1530930;75;730;-67
2022/03/24 03:07:06;;;;;;;;;;;23.60;35.10;;;;;;1526271;77;1083;-67
2022/03/24 03:09:08;;;;;;;;;;;23.60;35.20;;;;;;1530998;77;727;-67
2022/03/24 03:11:10;;;;;;;;;;;23.60;35.20;;;;;;1539126;75;725;-67
2022/03/24 03:13:12;;;;;;;;;;;23.50;35.20;;;;;;1534675;75;734;-67
2022/03/24 03:15:14;;;;;;;;;;;23.50;35.30;;;;;;1526763;77;1944;-67
2022/03/24 03:17:16;;;;;;;;;;;23.50;35.40;;;;;;1531002;77;1108;-67
2022/03/24 03:19:19;;;;;;;;;;;23.50;35.40;;;;;;1523441;77;836;-68
2022/03/24 03:21:21;;;;;;;;;;;23.60;35.40;;;;;;1548283;75;734;-67
2022/03/24 03:23:23;;;;;;;;;;;23.60;35.40;;;;;;1534870;76;743;-67
2022/03/24 03:25:25;;;;;;;;;;;23.60;35.30;;;;;;1544957;77;728;-68
2022/03/24 03:27:31;;;;;;;;;;;23.70;35.40;;;;;;1545896;76;1087;-68
2022/03/24 03:29:33;;;;;;;;;;;23.70;35.40;;;;;;1557901;75;650;-67
2022/03/24 03:31:35;;;;;;;;;;;23.70;35.50;;;;;;1560994;75;707;-67
2022/03/24 03:33:37;;;;;;;;;;;23.70;35.70;;;;;;1557558;75;648;-68
2022/03/24 03:35:39;;;;;;;;;;;23.60;36.10;;;;;;1551985;75;1939;-68
2022/03/24 03:37:41;;;;;;;;;;;23.60;36.50;;;;;;1541373;75;760;-69
2022/03/24 03:39:43;;;;;;;;;;;23.50;36.70;;;;;;1568258;75;713;-66
2022/03/24 03:41:45;;;;;;;;;;;23.40;37.00;;;;;;1556762;75;707;-67
2022/03/24 03:43:47;;;;;;;;;;;23.40;37.30;;;;;;1545103;75;737;-67
2022/03/24 03:45:50;;;;;;;;;;;23.40;37.60;;;;;;1521223;77;1183;-67
2022/03/24 03:47:52;;;;;;;;;;;23.30;37.60;;;;;;1517687;76;851;-67
2022/03/24 03:49:54;;;;;;;;;;;23.30;37.70;;;;;;1544575;76;731;-67
2022/03/24 03:51:56;;;;;;;;;;;23.30;37.80;;;;;;1554302;75;735;-68
2022/03/24 03:53:58;;;;;;;;;;;23.30;37.70;;;;;;1548558;75;728;-69
2022/03/24 03:56:00;;;;;;;;;;;23.30;37.60;;;;;;1556721;75;1932;-68
2022/03/24 03:58:02;;;;;;;;;;;23.30;37.60;;;;;;1536866;77;690;-68
2022/03/24 04:00:52;;;;;;;;;;;23.30;37.70;;;;;;1541238;75;748;-67
2022/03/24 04:02:08;;;;;;;;;;;23.30;37.60;;;;;;1520306;76;1428;-68
2022/03/24 04:04:12;;;;;;;;;;;23.30;37.60;;;;;;1554399;75;728;-70
2022/03/24 04:06:14;;;;;;;;;;;23.30;37.60;;;;;;1517738;77;1683;-68
2022/03/24 04:08:15;;;;;;;;;;;23.30;37.50;;;;;;1519142;76;705;-68
2022/03/24 04:10:17;;;;;;;;;;;23.40;37.50;;;;;;1540436;77;712;-68
2022/03/24 04:12:19;;;;;;;;;;;23.40;37.50;;;;;;1539222;77;721;-68
2022/03/24 04:14:21;;;;;;;;;;;23.40;37.60;;;;;;1538905;77;740;-68
2022/03/24 04:16:23;;;;;;;;;;;23.30;37.50;;;;;;1538345;75;1926;-66
2022/03/24 04:18:25;;;;;;;;;;;23.40;37.50;;;;;;1547170;75;683;-66
2022/03/24 04:20:27;;;;;;;;;;;23.40;37.40;;;;;;1545763;75;712;-66
2022/03/24 04:22:29;;;;;;;;;;;23.40;37.40;;;;;;1567387;75;589;-65
2022/03/24 04:24:30;;;;;;;;;;;23.40;37.40;;;;;;1563573;75;730;-68
2022/03/24 04:26:33;;;;;;;;;;;23.40;37.40;;;;;;1549190;75;1118;-65
2022/03/24 04:28:35;;;;;;;;;;;23.40;37.30;;;;;;1535225;76;733;-64
2022/03/24 04:30:36;;;;;;;;;;;23.40;37.50;;;;;;1566124;75;585;-64
2022/03/24 04:32:39;;;;;;;;;;;23.50;37.60;;;;;;1561033;75;738;-65
2022/03/24 04:34:41;;;;;;;;;;;23.50;37.60;;;;;;1544680;75;744;-67
2022/03/24 04:36:43;;;;;;;;;;;23.50;37.50;;;;;;1561087;75;1923;-67
2022/03/24 04:38:44;;;;;;;;;;;23.40;37.30;;;;;;1533591;76;743;-66
2022/03/24 04:40:46;;;;;;;;;;;23.50;37.50;;;;;;1542877;76;641;-65
2022/03/24 04:42:54;;;;;;;;;;;23.50;37.50;;;;;;1544179;75;699;-67
2022/03/24 04:44:53;;;;;;;;;;;23.50;37.60;;;;;;1537640;76;1563;-69
2022/03/24 04:46:55;;;;;;;;;;;23.50;37.60;;;;;;1542618;75;1170;-66
2022/03/24 04:48:57;;;;;;;;;;;23.40;37.40;;;;;;1543589;75;798;-65
2022/03/24 04:50:58;;;;;;;;;;;23.50;37.60;;;;;;1542965;75;720;-66
2022/03/24 04:53:00;;;;;;;;;;;23.50;37.80;;;;;;1534346;75;812;-66
2022/03/24 04:55:02;;;;;;;;;;;23.60;37.60;;;;;;1547705;75;1928;-65
2022/03/24 04:57:05;;;;;;;;;;;23.60;37.70;;;;;;1543776;76;1225;-66
2022/03/24 04:59:07;;;;;;;;;;;23.50;37.60;;;;;;1546430;75;743;-66
2022/03/24 05:01:09;;;;;;;;;;;23.50;37.60;;;;;;1539538;76;711;-66
2022/03/24 05:03:11;;;;;;;;;;;23.50;37.50;;;;;;1542366;75;601;-71
2022/03/24 05:05:14;;;;;;;;;;;23.60;37.50;;;;;;1533584;76;727;-66
2022/03/24 05:07:16;;;;;;;;;;;23.50;37.50;;;;;;1542814;76;1132;-66
2022/03/24 05:09:18;;;;;;;;;;;23.60;37.40;;;;;;1544058;75;725;-65
2022/03/24 05:11:20;;;;;;;;;;;23.50;37.50;;;;;;1517481;76;791;-66
2022/03/24 05:13:22;;;;;;;;;;;23.60;37.70;;;;;;1497185;76;711;-66
2022/03/24 05:15:23;;;;;;;;;;;23.70;37.80;;;;;;1559514;75;2075;-66
2022/03/24 05:17:26;;;;;;;;;;;23.60;37.60;;;;;;1530460;77;1103;-68
2022/03/24 05:19:27;;;;;;;;;;;23.60;37.70;;;;;;1529271;77;695;-67
2022/03/24 05:21:31;;;;;;;;;;;23.70;37.80;;;;;;1540655;75;689;-68
2022/03/24 05:23:33;;;;;;;;;;;23.60;37.70;;;;;;1522439;75;731;-66
2022/03/24 05:25:35;;;;;;;;;;;23.60;37.70;;;;;;1530993;75;1326;-66
2022/03/24 05:27:37;;;;;;;;;;;23.60;37.70;;;;;;1532157;77;611;-65
2022/03/24 05:29:39;;;;;;;;;;;23.70;37.80;;;;;;1530884;77;730;-65
2022/03/24 05:31:41;;;;;;;;;;;23.60;37.60;;;;;;1526237;77;605;-65
2022/03/24 05:33:43;;;;;;;;;;;23.70;38.00;;;;;;1530780;75;621;-67
2022/03/24 05:35:44;;;;;;;;;;;23.70;38.20;;;;;;1541687;77;1931;-67
2022/03/24 05:37:46;;;;;;;;;;;23.70;37.90;;;;;;1537749;77;713;-69
2022/03/24 05:39:48;;;;;;;;;;;23.70;37.90;;;;;;1541774;75;740;-70
2022/03/24 05:41:50;;;;;;;;;;;23.70;37.90;;;;;;1544473;77;763;-68
2022/03/24 05:44:04;;;;;;;;;;;23.70;38.00;;;;;;1556150;75;738;-67
2022/03/24 05:46:06;;;;;;;;;;;23.80;38.00;;;;;;1551515;75;1224;-67
2022/03/24 05:48:09;;;;;;;;;;;23.80;38.10;;;;;;1541663;77;708;-66
2022/03/24 05:50:12;;;;;;;;;;;23.70;38.10;;;;;;1540642;75;728;-70
2022/03/24 05:52:14;;;;;;;;;;;23.80;38.20;;;;;;1541587;77;800;-68
2022/03/24 05:54:17;;;;;;;;;;;23.70;38.20;;;;;;1540782;75;729;-63
2022/03/24 05:56:19;;;;;;;;;;;23.80;38.10;;;;;;1539548;75;1919;-68
2022/03/24 05:58:21;;;;;;;;;;;23.90;37.80;;;;;;1543248;77;763;-67
2022/03/24 06:00:23;;;;;;;;;;;23.80;37.30;;;;;;1544270;77;728;-66
2022/03/24 06:02:26;;;;;;;;;;;23.90;37.20;;;;;;1544136;77;642;-65
2022/03/24 06:04:29;;;;;;;;;;;23.80;36.90;;;;;;1541519;75;610;-66
2022/03/24 06:06:34;;;;;;;;;;;23.80;36.70;;;;;;1544326;77;1135;-69
2022/03/24 06:08:35;;;;;;;;;;;23.80;36.70;;;;;;1542930;76;1619;-65
2022/03/24 06:10:37;;;;;;;;;;;23.80;36.60;;;;;;1544034;77;741;-65
2022/03/24 06:12:39;;;;;;;;;;;23.80;36.70;;;;;;1541923;77;751;-66
2022/03/24 06:14:41;;;;;;;;;;;23.80;36.70;;;;;;1539389;75;796;-66
2022/03/24 06:16:42;;;;;;;;;;;23.80;36.80;;;;;;1543734;77;1943;-66
2022/03/24 06:18:44;;;;;;;;;;;23.70;36.80;;;;;;1531004;77;750;-67
2022/03/24 06:20:46;;;;;;;;;;;23.80;36.60;;;;;;1521734;77;743;-66
2022/03/24 06:22:50;;;;;;;;;;;23.80;36.60;;;;;;1535690;75;795;-68
2022/03/24 06:24:52;;;;;;;;;;;23.80;36.50;;;;;;1535179;75;1663;-67
2022/03/24 06:26:54;;;;;;;;;;;23.70;36.50;;;;;;1537796;77;1150;-68
2022/03/24 06:28:56;;;;;;;;;;;23.70;36.40;;;;;;1537971;77;776;-66
2022/03/24 06:30:58;;;;;;;;;;;23.80;36.40;;;;;;1541178;77;720;-65
2022/03/24 06:32:59;;;;;;;;;;;23.70;36.30;;;;;;1536977;75;746;-70
2022/03/24 06:35:05;;;;;;;;;;;23.70;36.30;;;;;;1537830;77;713;-67
2022/03/24 06:37:07;;;;;;;;;;;23.80;36.40;;;;;;1537751;77;1926;-65
2022/03/24 06:39:09;;;;;;;;;;;23.70;36.60;;;;;;1538525;77;703;-65
2022/03/24 06:41:14;;;;;;;;;;;24.00;36.40;;;;;;1536029;77;686;-66
2022/03/24 06:43:15;;;;;;;;;;;24.20;35.60;;;;;;1537539;75;1627;-65
2022/03/24 06:45:17;;;;;;;;;;;24.30;35.10;;;;;;1540598;77;723;-66
2022/03/24 06:47:19;;;;;;;;;;;24.30;34.60;;;;;;1534579;77;1154;-66
2022/03/24 06:49:20;;;;;;;;;;;24.30;34.40;;;;;;1539581;77;716;-63
2022/03/24 06:51:23;;;;;;;;;;;24.30;34.00;;;;;;1530485;75;700;-66
2022/03/24 06:53:25;;;;;;;;;;;24.30;33.70;;;;;;1532340;75;773;-65
2022/03/24 06:55:27;;;;;;;;;;;24.30;33.50;;;;;;1530757;75;737;-64
2022/03/24 06:57:29;;;;;;;;;;;24.30;33.10;;;;;;1540886;77;1940;-64
2022/03/24 06:59:30;;;;;;;;;;;24.20;32.90;;;;;;1541577;77;717;-65
2022/03/24 07:01:32;;;;;;;;;;;24.30;32.70;;;;;;1533495;77;715;-65
2022/03/24 07:03:34;;;;;;;;;;;24.10;32.60;;;;;;1541052;75;748;-65
2022/03/24 07:05:37;;;;;;;;;;;24.10;32.60;;;;;;1532806;77;1090;-64
2022/03/24 07:07:39;;;;;;;;;;;24.00;32.50;;;;;;1531021;77;737;-66
2022/03/24 07:09:41;;;;;;;;;;;24.00;32.40;;;;;;1531905;77;725;-64
2022/03/24 07:11:43;;;;;;;;;;;24.00;32.30;;;;;;1532629;75;751;-65
2022/03/24 07:13:45;;;;;;;;;;;23.90;32.20;;;;;;1526076;75;657;-64
2022/03/24 07:15:46;;;;;;;;;;;23.90;31.90;;;;;;1533499;77;1921;-65
2022/03/24 07:17:48;;;;;;;;;;;23.90;31.80;;;;;;1526622;77;746;-66
2022/03/24 07:19:50;;;;;;;;;;;23.90;31.70;;;;;;1541447;77;673;-67
2022/03/24 07:21:52;;;;;;;;;;;23.80;31.50;;;;;;1542359;77;726;-63
2022/03/24 07:23:54;;;;;;;;;;;23.80;31.50;;;;;;1537901;75;766;-63
2022/03/24 07:25:56;;;;;;;;;;;23.80;31.40;;;;;;1540162;75;1163;-63
2022/03/24 07:27:58;;;;;;;;;;;23.80;31.50;;;;;;1540854;77;586;-64
2022/03/24 07:29:59;;;;;;;;;;;23.70;31.40;;;;;;1535431;77;752;-64
2022/03/24 07:32:01;;;;;;;;;;;23.80;31.50;;;;;;1540822;77;743;-64
2022/03/24 07:34:03;;;;;;;;;;;23.80;31.40;;;;;;1536399;75;741;-63
2022/03/24 07:36:06;;;;;;;;;;;23.90;31.50;;;;;;1528527;77;1931;-63
2022/03/24 07:38:09;;;;;;;;;;;23.90;31.50;;;;;;1537516;77;739;-64
2022/03/24 07:40:11;;;;;;;;;;;24.00;31.50;;;;;;1538277;77;844;-66
2022/03/24 07:42:14;;;;;;;;;;;24.00;31.30;;;;;;1539564;75;738;-64
2022/03/24 07:44:16;;;;;;;;;;;24.00;31.30;;;;;;1538296;77;729;-64
2022/03/24 07:46:18;;;;;;;;;;;24.20;31.50;;;;;;1538147;77;1150;-63
2022/03/24 07:48:25;;;;;;;;;;;24.20;31.40;;;;;;1538246;77;729;-64
2022/03/24 07:50:24;;;;;;;;;;;24.20;31.30;;;;;;1537966;75;1554;-63
2022/03/24 07:52:26;;;;;;;;;;;24.30;31.50;;;;;;1531750;77;785;-63
2022/03/24 07:54:41;;;;;;;;;;;24.30;31.30;;;;;;1510331;77;614;-64
2022/03/24 07:56:43;;;;;;;;;;;24.40;31.20;;;;;;1525749;77;1946;-64
2022/03/24 07:58:45;;;;;;;;;;;24.50;31.10;;;;;;1541941;76;748;-64
2022/03/24 08:00:47;;;;;;;;;;;24.50;30.90;;;;;;1556055;75;730;-63
2022/03/24 08:02:52;;;;;;;;;;;24.50;31.00;;;;;;1527674;76;761;-64
2022/03/24 08:04:53;;;;;;;;;;;24.60;30.90;;;;;;1516867;76;1566;-64
2022/03/24 08:06:55;;;;;;;;;;;24.60;30.80;;;;;;1543761;77;1130;-64
2022/03/24 08:08:57;;;;;;;;;;;24.60;30.70;;;;;;1543799;77;718;-64
2022/03/24 08:10:59;;;;;;;;;;;24.60;30.70;;;;;;1541126;77;745;-63
2022/03/24 08:13:01;;;;;;;;;;;24.70;30.70;;;;;;1537502;75;728;-64
2022/03/24 08:15:03;;;;;;;;;;;24.70;30.60;;;;;;1538424;77;779;-62
2022/03/24 08:17:06;;;;;;;;;;;24.80;30.50;;;;;;1545608;74;2101;-66
2022/03/24 08:19:08;;;;;;;;;;;24.80;30.20;;;;;;1546763;75;721;-66
2022/03/24 08:21:10;;;;;;;;;;;24.70;30.30;;;;;;1540927;75;697;-68
2022/03/24 08:23:13;;;;;;;;;;;24.80;30.30;;;;;;1546282;75;834;-67
2022/03/24 08:25:15;;;;;;;;;;;24.80;30.20;;;;;;1547191;75;819;-68
2022/03/24 08:27:17;;;;;;;;;;;24.80;29.90;;;;;;1545990;75;1187;-69
2022/03/24 08:29:19;;;;;;;;;;;24.90;30.00;;;;;;1526690;76;721;-68
2022/03/24 08:31:20;;;;;;;;;;;24.90;30.20;;;;;;1524796;76;724;-67
2022/03/24 08:33:22;;;;;;;;;;;24.90;29.80;;;;;;1554206;75;836;-66
2022/03/24 08:35:24;;;;;;;;;;;24.90;30.00;;;;;;1516607;76;699;-66
2022/03/24 08:37:26;;;;;;;;;;;25.00;29.90;;;;;;1544961;77;1955;-67
2022/03/24 08:39:29;;;;;;;;;;;25.00;29.70;;;;;;1546850;77;620;-66
2022/03/24 08:41:31;;;;;;;;;;;25.00;29.70;;;;;;1545717;77;722;-67
2022/03/24 08:43:33;;;;;;;;;;;25.00;29.70;;;;;;1543873;77;674;-66
2022/03/24 08:45:35;;;;;;;;;;;25.00;29.50;;;;;;1545082;77;766;-68
2022/03/24 08:47:37;;;;;;;;;;;25.00;29.50;;;;;;1564401;75;1121;-66
2022/03/24 08:49:39;;;;;;;;;;;25.00;29.30;;;;;;1561431;75;724;-68
2022/03/24 08:51:41;;;;;;;;;;;25.00;29.40;;;;;;1545191;75;607;-66
2022/03/24 08:53:43;;;;;;;;;;;25.00;29.50;;;;;;1519575;77;584;-67
2022/03/24 08:55:45;;;;;;;;;;;25.00;29.40;;;;;;1516661;76;747;-67
2022/03/24 08:57:47;;;;;;;;;;;25.00;29.30;;;;;;1531400;76;1920;-67
2022/03/24 08:59:49;;;;;;;;;;;25.00;29.20;;;;;;1539648;76;751;-66
2022/03/24 09:01:51;;;;;;;;;;;25.00;29.30;;;;;;1550000;75;712;-66
2022/03/24 09:03:52;;;;;;;;;;;25.00;29.30;;;;;;1517656;78;713;-67
2022/03/24 09:05:54;;;;;;;;;;;25.00;29.10;;;;;;1554294;75;728;-68
2022/03/24 09:07:56;;;;;;;;;;;24.90;29.20;;;;;;1545546;75;1128;-67
2022/03/24 09:09:58;;;;;;;;;;;25.00;29.10;;;;;;1516554;76;614;-67
2022/03/24 09:12:00;;;;;;;;;;;24.90;29.20;;;;;;1529523;76;717;-68
2022/03/24 09:14:02;;;;;;;;;;;25.00;29.20;;;;;;1565000;75;721;-71
2022/03/24 09:16:04;;;;;;;;;;;24.90;29.10;;;;;;1566058;75;730;-68
2022/03/24 09:18:06;;;;;;;;;;;25.00;29.20;;;;;;1562953;75;1954;-67
2022/03/24 09:20:09;;;;;;;;;;;25.00;28.90;;;;;;1555571;75;731;-69
2022/03/24 09:22:11;;;;;;;;;;;24.90;28.10;;;;;;1524655;77;718;-65
2022/03/24 09:24:13;;;;;;;;;;;24.80;28.00;;;;;;1533101;75;709;-68
2022/03/24 09:26:15;;;;;;;;;;;24.80;27.80;;;;;;1532932;77;669;-67
2022/03/24 09:28:17;;;;;;;;;;;24.70;27.80;;;;;;1527103;77;1068;-67
2022/03/24 09:30:20;;;;;;;;;;;24.70;27.80;;;;;;1531656;77;729;-68
2022/03/24 09:32:22;;;;;;;;;;;24.70;27.80;;;;;;1523171;77;658;-68
2022/03/24 09:34:24;;;;;;;;;;;24.70;27.90;;;;;;1540890;75;738;-68
2022/03/24 09:36:26;;;;;;;;;;;24.70;28.00;;;;;;1539506;77;738;-67
2022/03/24 09:38:28;;;;;;;;;;;24.70;28.10;;;;;;1542364;77;1947;-68
2022/03/24 09:40:30;;;;;;;;;;;24.70;28.20;;;;;;1542384;77;714;-69
2022/03/24 09:42:32;;;;;;;;;;;24.60;28.10;;;;;;1537724;77;653;-67
2022/03/24 09:44:34;;;;;;;;;;;24.70;28.30;;;;;;1542757;75;710;-68
2022/03/24 09:46:35;;;;;;;;;;;24.50;27.50;;;;;;1541971;77;1120;-67
2022/03/24 09:48:37;;;;;;;;;;;24.50;27.60;;;;;;1541900;77;718;-67
2022/03/24 09:50:39;;;;;;;;;;;24.60;27.70;;;;;;1540819;75;618;-70
2022/03/24 09:52:41;;;;;;;;;;;24.50;27.90;;;;;;1541733;77;711;-67
2022/03/24 09:54:45;;;;;;;;;;;24.60;27.90;;;;;;1537361;75;642;-66
2022/03/24 09:56:46;;;;;;;;;;;24.60;28.00;;;;;;1526825;77;1935;-68
2022/03/24 09:58:48;;;;;;;;;;;24.60;28.00;;;;;;1532865;77;582;-66
2022/03/24 10:00:50;;;;;;;;;;;24.60;28.00;;;;;;1531359;77;725;-66
2022/03/24 10:03:09;;;;;;;;;;;24.70;27.90;;;;;;1531380;77;705;-69
2022/03/24 10:05:12;;;;;;;;;;;24.60;27.70;;;;;;1533791;75;760;-66
2022/03/24 10:07:14;;;;;;;;;;;24.60;27.70;;;;;;1532236;76;1675;-67
2022/03/24 10:09:16;;;;;;;;;;;24.60;27.60;;;;;;1529498;77;748;-68
2022/03/24 10:11:18;;;;;;;;;;;24.50;27.70;;;;;;1548326;75;702;-68
2022/03/24 10:13:24;;;;;;;;;;;24.60;27.70;;;;;;1560612;75;650;-67
2022/03/24 10:15:26;;;;;;;;;;;24.50;27.80;;;;;;1534191;76;742;-69
2022/03/24 10:17:27;;;;;;;;;;;24.50;27.80;;;;;;1546922;77;1954;-68
2022/03/24 10:19:29;;;;;;;;;;;24.50;27.90;;;;;;1543155;77;736;-68
2022/03/24 10:21:32;;;;;;;;;;;24.50;27.80;;;;;;1522182;77;729;-67
2022/03/24 10:23:33;;;;;;;;;;;24.50;27.40;;;;;;1557005;75;656;-67
2022/03/24 10:25:37;;;;;;;;;;;24.50;27.80;;;;;;1556283;75;682;-66
2022/03/24 10:27:39;;;;;;;;;;;24.50;27.60;;;;;;1547162;77;1153;-66
2022/03/24 10:29:41;;;;;;;;;;;24.50;27.50;;;;;;1541076;77;878;-67
2022/03/24 10:31:43;;;;;;;;;;;24.50;27.60;;;;;;1572172;74;1279;-68
2022/03/24 10:33:47;;;;;;;;;;;24.40;27.50;;;;;;1566117;75;690;-66
2022/03/24 10:35:49;;;;;;;;;;;24.40;27.40;;;;;;1531035;75;1406;-69
2022/03/24 10:37:53;;;;;;;;;;;24.40;27.40;;;;;;1568972;75;1930;-67
2022/03/24 10:39:56;;;;;;;;;;;24.40;27.50;;;;;;1555429;75;713;-66
2022/03/24 10:42:15;;;;;;;;;;;24.40;27.60;;;;;;1525443;76;1608;-66
2022/03/24 10:44:17;;;;;;;;;;;24.30;27.70;;;;;;1524829;76;1318;-66
2022/03/24 10:46:19;;;;;;;;;;;24.30;27.80;;;;;;1559879;75;731;-67
2022/03/24 10:48:22;;;;;;;;;;;24.40;27.60;;;;;;1520379;76;1078;-67
2022/03/24 10:50:40;;;;;;;;;;;24.40;27.70;;;;;;1545528;77;707;-68
2022/03/24 10:52:40;;;;;;;;;;;24.50;27.50;;;;;;1522716;76;1464;-67
2022/03/24 10:54:49;;;;;;;;;;;24.40;27.20;;;;;;1556859;75;666;-67
2022/03/24 10:56:54;;;;;;;;;;;24.40;27.20;;;;;;1554112;75;1141;-67
2022/03/24 10:59:00;;;;;;;;;;;24.30;27.30;;;;;;1554298;75;1938;-67
2022/03/24 11:01:04;;;;;;;;;;;24.30;27.30;;;;;;1537770;77;596;-68
2022/03/24 11:03:05;;;;;;;;;;;24.30;27.30;;;;;;1539068;75;710;-68
2022/03/24 11:05:12;;;;;;;;;;;24.30;27.30;;;;;;1513310;77;1222;-67
2022/03/24 11:07:11;;;;;;;;;;;24.30;27.40;;;;;;1530750;76;1569;-67
2022/03/24 11:09:15;;;;;;;;;;;24.30;27.30;;;;;;1523796;77;746;-68
2022/03/24 11:11:16;;;;;;;;;;;24.30;27.30;;;;;;1558237;75;1077;-67
2022/03/24 11:13:20;;;;;;;;;;;24.20;27.00;;;;;;1563715;75;731;-66
2022/03/24 11:15:22;;;;;;;;;;;24.20;27.00;;;;;;1564177;75;1639;-66
2022/03/24 11:17:25;;;;;;;;;;;24.20;27.00;;;;;;1546508;75;1925;-65
2022/03/24 11:19:27;;;;;;;;;;;24.30;27.30;;;;;;1500988;78;741;-66
2022/03/24 11:21:42;;;;;;;;;;;24.30;27.20;;;;;;1569381;75;710;-66
2022/03/24 11:23:45;;;;;;;;;;;24.20;26.80;;;;;;1532420;76;747;-67
2022/03/24 11:25:46;;;;;;;;;;;24.20;26.90;;;;;;1520973;76;732;-67
2022/03/24 11:27:49;;;;;;;;;;;24.10;26.90;;;;;;1545367;76;1146;-67
2022/03/24 11:29:50;;;;;;;;;;;24.10;26.90;;;;;;1552982;75;751;-66
2022/03/24 11:31:52;;;;;;;;;;;24.10;27.10;;;;;;1552589;75;735;-68
2022/03/24 11:33:54;;;;;;;;;;;24.10;27.00;;;;;;1519702;76;727;-67
2022/03/24 11:35:56;;;;;;;;;;;24.20;26.90;;;;;;1545384;76;727;-67
2022/03/24 11:37:58;;;;;;;;;;;24.20;26.80;;;;;;1559455;75;1946;-66
2022/03/24 11:40:14;;;;;;;;;;;24.20;26.80;;;;;;1555158;75;789;-66
2022/03/24 11:42:15;;;;;;;;;;;24.10;26.80;;;;;;1559263;75;735;-68
2022/03/24 11:44:38;;;;;;;;;;;24.20;26.80;;;;;;1520239;77;740;-68
2022/03/24 11:46:41;;;;;;;;;;;24.20;26.80;;;;;;1552010;75;1103;-68
2022/03/24 11:48:45;;;;;;;;;;;24.20;26.70;;;;;;1547809;75;1635;-69
2022/03/24 11:50:52;;;;;;;;;;;24.10;26.50;;;;;;1553652;75;720;-68
2022/03/24 11:52:55;;;;;;;;;;;24.20;26.50;;;;;;1555578;75;741;-68
2022/03/24 11:54:57;;;;;;;;;;;24.10;26.60;;;;;;1551455;75;1904;-69
2022/03/24 11:57:17;;;;;;;;;;;24.10;26.30;;;;;;1554052;75;1127;-72
2022/03/24 11:59:19;;;;;;;;;;;24.00;26.30;;;;;;1552238;75;1943;-70
2022/03/24 12:01:25;;;;;;;;;;;24.00;25.90;;;;;;1529064;76;582;-69
2022/03/24 12:03:43;;;;;;;;;;;23.90;26.00;;;;;;1551126;75;619;-69
2022/03/24 12:05:53;;;;;;;;;;;23.90;26.30;;;;;;1513809;78;727;-70
2022/03/24 12:07:52;;;;;;;;;;;23.90;26.50;;;;;;1546445;76;1125;-67
2022/03/24 12:09:54;;;;;;;;;;;23.90;26.40;;;;;;1554355;75;902;-67
2022/03/24 12:12:04;;;;;;;;;;;23.90;26.00;;;;;;1551946;75;714;-68
2022/03/24 12:14:07;;;;;;;;;;;23.90;25.60;;;;;;1519814;76;709;-67